sensor_id;sensor_type;location;lat;lon;timestamp;temperature;humidity
20759;DHT22;10539;53.686;9.158;2023-05-10T00:00:14;18.50;89.10
20759;DHT22;10539;53.686;9.158;2023-05-10T00:02:40;18.50;89.00
20759;DHT22;10539;53.686;9.158;2023-05-10T00:05:06;18.50;88.90
20759;DHT22;10539;53.686;9.158;2023-05-10T00:07:32;18.50;89.10
20759;DHT22;10539;53.686;9.158;2023-05-10T00:09:58;18.50;89.10
20759;DHT22;10539;53.686;9.158;2023-05-10T00:12:23;18.40;89.10
20759;DHT22;10539;53.686;9.158;2023-05-10T00:14:49;18.40;89.30
20759;DHT22;10539;53.686;9.158;2023-05-10T00:17:15;18.30;89.40
20759;DHT22;10539;53.686;9.158;2023-05-10T00:19:41;18.30;89.60
20759;DHT22;10539;53.686;9.158;2023-05-10T00:22:06;18.30;89.70
20759;DHT22;10539;53.686;9.158;2023-05-10T00:24:32;18.30;89.80
20759;DHT22;10539;53.686;9.158;2023-05-10T00:26:58;18.30;89.90
20759;DHT22;10539;53.686;9.158;2023-05-10T00:29:24;18.20;90.00
20759;DHT22;10539;53.686;9.158;2023-05-10T00:31:49;18.20;90.10
20759;DHT22;10539;53.686;9.158;2023-05-10T00:34:15;18.20;90.30
20759;DHT22;10539;53.686;9.158;2023-05-10T00:36:41;18.20;90.40
20759;DHT22;10539;53.686;9.158;2023-05-10T00:39:07;18.20;90.40
20759;DHT22;10539;53.686;9.158;2023-05-10T00:41:33;18.20;90.60
20759;DHT22;10539;53.686;9.158;2023-05-10T00:43:59;18.20;90.60
20759;DHT22;10539;53.686;9.158;2023-05-10T00:46:25;18.10;90.80
20759;DHT22;10539;53.686;9.158;2023-05-10T00:48:51;18.10;91.10
20759;DHT22;10539;53.686;9.158;2023-05-10T00:51:18;18.00;91.20
20759;DHT22;10539;53.686;9.158;2023-05-10T00:53:45;18.00;91.30
20759;DHT22;10539;53.686;9.158;2023-05-10T00:56:12;18.00;91.40
20759;DHT22;10539;53.686;9.158;2023-05-10T00:58:39;18.00;91.80
20759;DHT22;10539;53.686;9.158;2023-05-10T01:01:05;17.90;92.30
20759;DHT22;10539;53.686;9.158;2023-05-10T01:03:32;17.80;93.30
20759;DHT22;10539;53.686;9.158;2023-05-10T01:05:58;17.80;93.70
20759;DHT22;10539;53.686;9.158;2023-05-10T01:08:24;17.70;94.10
20759;DHT22;10539;53.686;9.158;2023-05-10T01:10:51;17.60;94.50
20759;DHT22;10539;53.686;9.158;2023-05-10T01:13:38;17.60;94.60
20759;DHT22;10539;53.686;9.158;2023-05-10T01:16:05;17.50;95.10
20759;DHT22;10539;53.686;9.158;2023-05-10T01:18:36;17.50;95.10
20759;DHT22;10539;53.686;9.158;2023-05-10T01:21:28;17.40;95.30
20759;DHT22;10539;53.686;9.158;2023-05-10T01:24:03;17.30;95.90
20759;DHT22;10539;53.686;9.158;2023-05-10T01:29:40;17.20;96.30
20759;DHT22;10539;53.686;9.158;2023-05-10T01:32:30;17.10;96.50
20759;DHT22;10539;53.686;9.158;2023-05-10T01:35:03;17.00;96.80
20759;DHT22;10539;53.686;9.158;2023-05-10T01:37:45;16.90;97.20
20759;DHT22;10539;53.686;9.158;2023-05-10T01:40:23;16.90;97.20
20759;DHT22;10539;53.686;9.158;2023-05-10T01:43:03;16.80;97.30
20759;DHT22;10539;53.686;9.158;2023-05-10T01:45:54;16.70;97.60
20759;DHT22;10539;53.686;9.158;2023-05-10T01:48:24;16.70;97.80
20759;DHT22;10539;53.686;9.158;2023-05-10T01:50:53;16.60;97.80
20759;DHT22;10539;53.686;9.158;2023-05-10T01:53:20;16.50;98.00
20759;DHT22;10539;53.686;9.158;2023-05-10T01:55:49;16.50;98.10
20759;DHT22;10539;53.686;9.158;2023-05-10T01:58:24;16.40;98.30
20759;DHT22;10539;53.686;9.158;2023-05-10T02:00:51;16.40;98.40
20759;DHT22;10539;53.686;9.158;2023-05-10T02:03:19;16.40;98.60
20759;DHT22;10539;53.686;9.158;2023-05-10T02:05:48;16.30;98.70
20759;DHT22;10539;53.686;9.158;2023-05-10T02:08:16;16.30;98.80
20759;DHT22;10539;53.686;9.158;2023-05-10T02:10:43;16.30;98.90
20759;DHT22;10539;53.686;9.158;2023-05-10T02:13:11;16.30;99.10
20759;DHT22;10539;53.686;9.158;2023-05-10T02:15:38;16.20;99.20
20759;DHT22;10539;53.686;9.158;2023-05-10T02:18:06;16.20;99.30
20759;DHT22;10539;53.686;9.158;2023-05-10T02:20:33;16.10;99.60
20759;DHT22;10539;53.686;9.158;2023-05-10T02:22:59;16.10;99.90
20759;DHT22;10539;53.686;9.158;2023-05-10T02:25:27;16.10;99.90
20759;DHT22;10539;53.686;9.158;2023-05-10T02:27:55;16.00;99.90
20759;DHT22;10539;53.686;9.158;2023-05-10T02:30:22;16.00;99.90
20759;DHT22;10539;53.686;9.158;2023-05-10T02:32:50;15.90;99.90
20759;DHT22;10539;53.686;9.158;2023-05-10T02:35:16;15.90;99.90
20759;DHT22;10539;53.686;9.158;2023-05-10T02:37:43;15.80;99.90
20759;DHT22;10539;53.686;9.158;2023-05-10T02:40:11;15.80;99.90
20759;DHT22;10539;53.686;9.158;2023-05-10T02:42:38;15.70;99.90
20759;DHT22;10539;53.686;9.158;2023-05-10T02:45:11;15.70;99.90
20759;DHT22;10539;53.686;9.158;2023-05-10T02:47:38;15.70;99.90
20759;DHT22;10539;53.686;9.158;2023-05-10T02:50:04;15.70;99.90
20759;DHT22;10539;53.686;9.158;2023-05-10T02:52:44;15.70;99.90
20759;DHT22;10539;53.686;9.158;2023-05-10T02:55:14;15.60;99.90
20759;DHT22;10539;53.686;9.158;2023-05-10T02:57:50;15.60;99.90
20759;DHT22;10539;53.686;9.158;2023-05-10T03:00:17;15.60;99.90
20759;DHT22;10539;53.686;9.158;2023-05-10T03:02:43;15.50;99.90
20759;DHT22;10539;53.686;9.158;2023-05-10T03:05:08;15.50;99.90
20759;DHT22;10539;53.686;9.158;2023-05-10T03:07:35;15.40;99.90
20759;DHT22;10539;53.686;9.158;2023-05-10T03:10:01;15.40;99.90
20759;DHT22;10539;53.686;9.158;2023-05-10T03:18:29;15.20;99.90
20759;DHT22;10539;53.686;9.158;2023-05-10T03:21:00;15.20;99.90
20759;DHT22;10539;53.686;9.158;2023-05-10T03:23:54;15.20;99.90
20759;DHT22;10539;53.686;9.158;2023-05-10T03:26:27;15.20;99.90
20759;DHT22;10539;53.686;9.158;2023-05-10T03:28:54;15.10;99.90
20759;DHT22;10539;53.686;9.158;2023-05-10T03:31:23;15.10;99.90
20759;DHT22;10539;53.686;9.158;2023-05-10T03:33:50;15.00;99.90
20759;DHT22;10539;53.686;9.158;2023-05-10T03:36:16;15.00;99.90
20759;DHT22;10539;53.686;9.158;2023-05-10T03:38:42;15.00;99.90
20759;DHT22;10539;53.686;9.158;2023-05-10T03:41:08;15.00;99.90
20759;DHT22;10539;53.686;9.158;2023-05-10T03:43:34;14.90;99.90
20759;DHT22;10539;53.686;9.158;2023-05-10T03:46:02;14.90;99.90
20759;DHT22;10539;53.686;9.158;2023-05-10T03:48:28;14.90;99.90
20759;DHT22;10539;53.686;9.158;2023-05-10T03:50:54;14.80;99.90
20759;DHT22;10539;53.686;9.158;2023-05-10T03:53:20;14.80;99.90
20759;DHT22;10539;53.686;9.158;2023-05-10T03:55:46;14.80;99.90
20759;DHT22;10539;53.686;9.158;2023-05-10T03:58:12;14.80;99.90
20759;DHT22;10539;53.686;9.158;2023-05-10T04:00:37;14.80;99.90
20759;DHT22;10539;53.686;9.158;2023-05-10T04:03:09;14.90;99.90
20759;DHT22;10539;53.686;9.158;2023-05-10T04:05:35;14.80;99.90
20759;DHT22;10539;53.686;9.158;2023-05-10T04:08:02;14.80;99.90
20759;DHT22;10539;53.686;9.158;2023-05-10T04:10:28;14.80;99.90
20759;DHT22;10539;53.686;9.158;2023-05-10T04:12:54;14.80;99.90
20759;DHT22;10539;53.686;9.158;2023-05-10T04:15:19;14.80;99.90
20759;DHT22;10539;53.686;9.158;2023-05-10T04:17:46;14.80;99.90
20759;DHT22;10539;53.686;9.158;2023-05-10T04:20:12;14.80;99.90
20759;DHT22;10539;53.686;9.158;2023-05-10T04:22:38;14.80;99.90
20759;DHT22;10539;53.686;9.158;2023-05-10T04:25:05;14.80;99.90
20759;DHT22;10539;53.686;9.158;2023-05-10T04:27:31;14.80;99.90
20759;DHT22;10539;53.686;9.158;2023-05-10T04:29:57;14.80;99.90
20759;DHT22;10539;53.686;9.158;2023-05-10T04:32:23;14.80;99.90
20759;DHT22;10539;53.686;9.158;2023-05-10T04:34:49;14.90;99.90
20759;DHT22;10539;53.686;9.158;2023-05-10T04:37:16;14.90;99.90
20759;DHT22;10539;53.686;9.158;2023-05-10T04:39:41;14.90;99.90
20759;DHT22;10539;53.686;9.158;2023-05-10T04:42:07;14.90;99.90
20759;DHT22;10539;53.686;9.158;2023-05-10T04:44:33;14.90;99.90
20759;DHT22;10539;53.686;9.158;2023-05-10T04:46:59;15.00;99.90
20759;DHT22;10539;53.686;9.158;2023-05-10T04:49:25;15.00;99.90
20759;DHT22;10539;53.686;9.158;2023-05-10T04:51:51;15.00;99.90
20759;DHT22;10539;53.686;9.158;2023-05-10T04:54:16;15.10;99.90
20759;DHT22;10539;53.686;9.158;2023-05-10T04:56:42;15.10;99.90
20759;DHT22;10539;53.686;9.158;2023-05-10T04:59:08;15.10;99.90
20759;DHT22;10539;53.686;9.158;2023-05-10T05:01:33;15.20;99.90
20759;DHT22;10539;53.686;9.158;2023-05-10T05:04:00;15.20;99.90
20759;DHT22;10539;53.686;9.158;2023-05-10T05:06:26;15.20;99.90
20759;DHT22;10539;53.686;9.158;2023-05-10T05:08:52;15.20;99.90
20759;DHT22;10539;53.686;9.158;2023-05-10T05:11:18;15.10;99.90
20759;DHT22;10539;53.686;9.158;2023-05-10T05:13:44;15.10;99.90
20759;DHT22;10539;53.686;9.158;2023-05-10T05:16:10;15.10;99.90
20759;DHT22;10539;53.686;9.158;2023-05-10T05:18:37;15.00;99.90
20759;DHT22;10539;53.686;9.158;2023-05-10T05:21:03;15.00;99.90
20759;DHT22;10539;53.686;9.158;2023-05-10T05:23:28;15.00;99.90
20759;DHT22;10539;53.686;9.158;2023-05-10T05:25:54;15.00;99.90
20759;DHT22;10539;53.686;9.158;2023-05-10T05:28:20;15.10;99.90
20759;DHT22;10539;53.686;9.158;2023-05-10T05:30:46;15.10;99.90
20759;DHT22;10539;53.686;9.158;2023-05-10T05:33:15;15.10;99.90
20759;DHT22;10539;53.686;9.158;2023-05-10T05:35:41;15.20;99.90
20759;DHT22;10539;53.686;9.158;2023-05-10T05:38:10;15.20;99.90
20759;DHT22;10539;53.686;9.158;2023-05-10T05:40:35;15.20;99.90
20759;DHT22;10539;53.686;9.158;2023-05-10T05:43:01;15.20;99.90
20759;DHT22;10539;53.686;9.158;2023-05-10T05:45:27;15.20;99.90
20759;DHT22;10539;53.686;9.158;2023-05-10T05:47:53;15.20;99.90
20759;DHT22;10539;53.686;9.158;2023-05-10T05:50:18;15.20;99.90
20759;DHT22;10539;53.686;9.158;2023-05-10T05:52:44;15.20;99.90
20759;DHT22;10539;53.686;9.158;2023-05-10T05:55:10;15.30;99.90
20759;DHT22;10539;53.686;9.158;2023-05-10T05:57:35;15.30;99.90
20759;DHT22;10539;53.686;9.158;2023-05-10T06:00:01;15.40;99.90
20759;DHT22;10539;53.686;9.158;2023-05-10T06:02:29;15.40;99.90
20759;DHT22;10539;53.686;9.158;2023-05-10T06:04:55;15.40;99.90
20759;DHT22;10539;53.686;9.158;2023-05-10T06:07:21;15.40;99.90
20759;DHT22;10539;53.686;9.158;2023-05-10T06:09:47;15.50;99.90
20759;DHT22;10539;53.686;9.158;2023-05-10T06:12:12;15.50;99.90
20759;DHT22;10539;53.686;9.158;2023-05-10T06:14:38;15.50;99.90
20759;DHT22;10539;53.686;9.158;2023-05-10T06:17:04;15.50;99.90
20759;DHT22;10539;53.686;9.158;2023-05-10T06:19:30;15.50;99.90
20759;DHT22;10539;53.686;9.158;2023-05-10T06:21:56;15.60;99.90
20759;DHT22;10539;53.686;9.158;2023-05-10T06:24:21;15.60;99.90
20759;DHT22;10539;53.686;9.158;2023-05-10T06:26:47;15.60;99.90
20759;DHT22;10539;53.686;9.158;2023-05-10T06:29:15;15.60;99.90
20759;DHT22;10539;53.686;9.158;2023-05-10T06:31:41;15.60;99.90
20759;DHT22;10539;53.686;9.158;2023-05-10T06:34:06;15.70;99.90
20759;DHT22;10539;53.686;9.158;2023-05-10T06:36:33;15.70;99.90
20759;DHT22;10539;53.686;9.158;2023-05-10T06:38:59;15.80;99.90
20759;DHT22;10539;53.686;9.158;2023-05-10T06:41:25;15.80;99.90
20759;DHT22;10539;53.686;9.158;2023-05-10T06:43:51;15.80;99.90
20759;DHT22;10539;53.686;9.158;2023-05-10T06:46:16;15.80;99.90
20759;DHT22;10539;53.686;9.158;2023-05-10T06:48:42;15.80;99.90
20759;DHT22;10539;53.686;9.158;2023-05-10T06:51:08;15.90;99.90
20759;DHT22;10539;53.686;9.158;2023-05-10T06:53:34;15.90;99.90
20759;DHT22;10539;53.686;9.158;2023-05-10T06:55:59;15.90;99.90
20759;DHT22;10539;53.686;9.158;2023-05-10T06:58:25;15.90;99.90
20759;DHT22;10539;53.686;9.158;2023-05-10T07:00:51;15.90;99.90
20759;DHT22;10539;53.686;9.158;2023-05-10T07:03:17;15.90;99.90
20759;DHT22;10539;53.686;9.158;2023-05-10T07:05:43;16.00;99.90
20759;DHT22;10539;53.686;9.158;2023-05-10T07:08:08;16.00;99.90
20759;DHT22;10539;53.686;9.158;2023-05-10T07:10:34;16.00;99.90
20759;DHT22;10539;53.686;9.158;2023-05-10T07:13:00;16.10;99.90
20759;DHT22;10539;53.686;9.158;2023-05-10T07:15:26;16.10;99.90
20759;DHT22;10539;53.686;9.158;2023-05-10T07:17:52;16.10;99.90
20759;DHT22;10539;53.686;9.158;2023-05-10T07:20:18;16.10;99.90
20759;DHT22;10539;53.686;9.158;2023-05-10T07:22:44;16.10;99.90
20759;DHT22;10539;53.686;9.158;2023-05-10T07:25:09;16.00;99.90
20759;DHT22;10539;53.686;9.158;2023-05-10T07:27:36;15.90;99.90
20759;DHT22;10539;53.686;9.158;2023-05-10T07:30:02;15.90;99.90
20759;DHT22;10539;53.686;9.158;2023-05-10T07:32:28;15.90;99.90
20759;DHT22;10539;53.686;9.158;2023-05-10T07:34:53;15.90;99.90
20759;DHT22;10539;53.686;9.158;2023-05-10T07:37:19;15.90;99.90
20759;DHT22;10539;53.686;9.158;2023-05-10T07:39:45;15.90;99.90
20759;DHT22;10539;53.686;9.158;2023-05-10T07:42:11;15.90;99.90
20759;DHT22;10539;53.686;9.158;2023-05-10T07:44:37;15.90;99.90
20759;DHT22;10539;53.686;9.158;2023-05-10T07:47:02;15.90;99.90
20759;DHT22;10539;53.686;9.158;2023-05-10T07:49:28;16.00;99.90
20759;DHT22;10539;53.686;9.158;2023-05-10T07:51:54;16.00;99.90
20759;DHT22;10539;53.686;9.158;2023-05-10T07:54:20;15.90;99.90
20759;DHT22;10539;53.686;9.158;2023-05-10T07:56:46;15.80;99.90
20759;DHT22;10539;53.686;9.158;2023-05-10T07:59:16;15.70;99.90
20759;DHT22;10539;53.686;9.158;2023-05-10T08:01:42;15.60;99.90
20759;DHT22;10539;53.686;9.158;2023-05-10T08:04:08;15.40;99.90
20759;DHT22;10539;53.686;9.158;2023-05-10T08:06:34;15.30;99.90
20759;DHT22;10539;53.686;9.158;2023-05-10T08:09:00;15.30;99.90
20759;DHT22;10539;53.686;9.158;2023-05-10T08:11:26;15.20;99.90
20759;DHT22;10539;53.686;9.158;2023-05-10T08:13:53;15.10;99.90
20759;DHT22;10539;53.686;9.158;2023-05-10T08:16:20;15.00;99.90
20759;DHT22;10539;53.686;9.158;2023-05-10T08:18:46;15.00;99.90
20759;DHT22;10539;53.686;9.158;2023-05-10T08:21:13;14.90;99.90
20759;DHT22;10539;53.686;9.158;2023-05-10T08:23:39;14.80;99.90
20759;DHT22;10539;53.686;9.158;2023-05-10T08:26:05;14.80;99.90
20759;DHT22;10539;53.686;9.158;2023-05-10T08:28:31;14.80;99.90
20759;DHT22;10539;53.686;9.158;2023-05-10T08:30:56;14.80;99.90
20759;DHT22;10539;53.686;9.158;2023-05-10T08:33:22;14.70;99.90
20759;DHT22;10539;53.686;9.158;2023-05-10T08:35:48;14.80;99.90
20759;DHT22;10539;53.686;9.158;2023-05-10T08:38:14;14.80;99.90
20759;DHT22;10539;53.686;9.158;2023-05-10T08:40:43;14.70;99.90
20759;DHT22;10539;53.686;9.158;2023-05-10T08:43:13;14.80;99.90
20759;DHT22;10539;53.686;9.158;2023-05-10T08:45:43;14.80;99.90
20759;DHT22;10539;53.686;9.158;2023-05-10T08:48:11;14.80;99.90
20759;DHT22;10539;53.686;9.158;2023-05-10T08:50:40;14.80;99.90
20759;DHT22;10539;53.686;9.158;2023-05-10T08:53:10;14.70;99.90
20759;DHT22;10539;53.686;9.158;2023-05-10T08:55:36;14.70;99.90
20759;DHT22;10539;53.686;9.158;2023-05-10T08:58:04;14.60;99.90
20759;DHT22;10539;53.686;9.158;2023-05-10T09:00:31;14.60;99.90
20759;DHT22;10539;53.686;9.158;2023-05-10T09:03:01;14.60;99.90
20759;DHT22;10539;53.686;9.158;2023-05-10T09:05:27;14.60;99.90
20759;DHT22;10539;53.686;9.158;2023-05-10T09:07:53;14.60;99.90
20759;DHT22;10539;53.686;9.158;2023-05-10T09:10:20;14.50;99.90
20759;DHT22;10539;53.686;9.158;2023-05-10T09:12:46;14.50;99.90
20759;DHT22;10539;53.686;9.158;2023-05-10T09:15:15;14.50;99.90
20759;DHT22;10539;53.686;9.158;2023-05-10T09:17:42;14.50;99.90
20759;DHT22;10539;53.686;9.158;2023-05-10T09:20:09;14.50;99.90
20759;DHT22;10539;53.686;9.158;2023-05-10T09:22:36;14.40;99.90
20759;DHT22;10539;53.686;9.158;2023-05-10T09:25:09;14.40;99.90
20759;DHT22;10539;53.686;9.158;2023-05-10T09:27:37;14.40;99.90
20759;DHT22;10539;53.686;9.158;2023-05-10T09:30:04;14.40;99.90
20759;DHT22;10539;53.686;9.158;2023-05-10T09:32:44;14.40;99.90
20759;DHT22;10539;53.686;9.158;2023-05-10T09:35:11;14.50;99.90
20759;DHT22;10539;53.686;9.158;2023-05-10T09:37:38;14.50;99.90
20759;DHT22;10539;53.686;9.158;2023-05-10T09:40:11;14.50;99.90
20759;DHT22;10539;53.686;9.158;2023-05-10T09:42:37;14.50;99.90
20759;DHT22;10539;53.686;9.158;2023-05-10T09:45:04;14.50;99.90
20759;DHT22;10539;53.686;9.158;2023-05-10T09:47:36;14.50;99.90
20759;DHT22;10539;53.686;9.158;2023-05-10T09:50:03;14.50;99.90
20759;DHT22;10539;53.686;9.158;2023-05-10T09:52:51;14.40;99.90
20759;DHT22;10539;53.686;9.158;2023-05-10T09:55:19;14.40;99.90
20759;DHT22;10539;53.686;9.158;2023-05-10T09:57:46;14.50;99.90
20759;DHT22;10539;53.686;9.158;2023-05-10T10:00:22;14.60;99.90
20759;DHT22;10539;53.686;9.158;2023-05-10T10:02:53;14.70;99.90
20759;DHT22;10539;53.686;9.158;2023-05-10T10:05:19;14.70;99.90
20759;DHT22;10539;53.686;9.158;2023-05-10T10:07:45;14.80;99.90
20759;DHT22;10539;53.686;9.158;2023-05-10T10:10:11;14.80;99.90
20759;DHT22;10539;53.686;9.158;2023-05-10T10:12:39;14.90;99.90
20759;DHT22;10539;53.686;9.158;2023-05-10T10:15:07;14.90;99.90
20759;DHT22;10539;53.686;9.158;2023-05-10T10:17:35;14.80;99.90
20759;DHT22;10539;53.686;9.158;2023-05-10T10:20:03;14.80;99.90
20759;DHT22;10539;53.686;9.158;2023-05-10T10:22:28;14.80;99.90
20759;DHT22;10539;53.686;9.158;2023-05-10T10:24:55;14.80;99.90
20759;DHT22;10539;53.686;9.158;2023-05-10T10:27:46;14.80;99.90
20759;DHT22;10539;53.686;9.158;2023-05-10T10:36:12;14.90;99.90
20759;DHT22;10539;53.686;9.158;2023-05-10T10:41:32;15.00;99.90
20759;DHT22;10539;53.686;9.158;2023-05-10T10:44:23;15.20;99.90
20759;DHT22;10539;53.686;9.158;2023-05-10T10:49:24;15.20;99.90
20759;DHT22;10539;53.686;9.158;2023-05-10T10:52:12;15.20;99.90
20759;DHT22;10539;53.686;9.158;2023-05-10T10:54:38;15.30;99.90
20759;DHT22;10539;53.686;9.158;2023-05-10T10:57:14;15.40;99.90
20759;DHT22;10539;53.686;9.158;2023-05-10T10:59:44;15.50;99.90
20759;DHT22;10539;53.686;9.158;2023-05-10T11:02:10;15.50;99.90
20759;DHT22;10539;53.686;9.158;2023-05-10T11:04:42;15.60;99.90
20759;DHT22;10539;53.686;9.158;2023-05-10T11:07:18;15.70;99.90
20759;DHT22;10539;53.686;9.158;2023-05-10T11:09:46;15.80;99.90
20759;DHT22;10539;53.686;9.158;2023-05-10T11:12:12;16.00;99.90
20759;DHT22;10539;53.686;9.158;2023-05-10T11:14:38;16.10;99.90
20759;DHT22;10539;53.686;9.158;2023-05-10T11:17:28;16.20;99.90
20759;DHT22;10539;53.686;9.158;2023-05-10T11:20:10;16.30;99.90
20759;DHT22;10539;53.686;9.158;2023-05-10T11:22:49;16.30;99.90
20759;DHT22;10539;53.686;9.158;2023-05-10T11:25:19;16.30;99.90
20759;DHT22;10539;53.686;9.158;2023-05-10T11:27:47;16.40;99.90
20759;DHT22;10539;53.686;9.158;2023-05-10T11:30:14;16.50;99.90
20759;DHT22;10539;53.686;9.158;2023-05-10T11:32:40;16.50;99.90
20759;DHT22;10539;53.686;9.158;2023-05-10T11:35:11;16.60;99.90
20759;DHT22;10539;53.686;9.158;2023-05-10T11:37:41;16.70;99.90
20759;DHT22;10539;53.686;9.158;2023-05-10T11:40:09;16.70;99.90
20759;DHT22;10539;53.686;9.158;2023-05-10T11:42:38;16.80;99.90
20759;DHT22;10539;53.686;9.158;2023-05-10T11:45:05;16.90;99.90
20759;DHT22;10539;53.686;9.158;2023-05-10T11:47:31;17.00;99.90
20759;DHT22;10539;53.686;9.158;2023-05-10T11:49:57;17.00;99.90
20759;DHT22;10539;53.686;9.158;2023-05-10T11:52:23;17.20;99.90
20759;DHT22;10539;53.686;9.158;2023-05-10T11:54:53;17.40;99.90
20759;DHT22;10539;53.686;9.158;2023-05-10T11:57:19;17.50;99.90
20759;DHT22;10539;53.686;9.158;2023-05-10T11:59:46;17.60;99.90
20759;DHT22;10539;53.686;9.158;2023-05-10T12:02:15;17.50;99.90
20759;DHT22;10539;53.686;9.158;2023-05-10T12:04:41;17.50;99.90
20759;DHT22;10539;53.686;9.158;2023-05-10T12:07:07;17.40;99.90
20759;DHT22;10539;53.686;9.158;2023-05-10T12:09:33;17.30;99.90
20759;DHT22;10539;53.686;9.158;2023-05-10T12:11:58;17.30;99.90
20759;DHT22;10539;53.686;9.158;2023-05-10T12:14:24;17.20;99.90
20759;DHT22;10539;53.686;9.158;2023-05-10T12:16:50;17.20;99.90
20759;DHT22;10539;53.686;9.158;2023-05-10T12:19:19;17.20;99.90
20759;DHT22;10539;53.686;9.158;2023-05-10T12:21:48;17.30;99.90
20759;DHT22;10539;53.686;9.158;2023-05-10T12:24:14;17.40;99.90
20759;DHT22;10539;53.686;9.158;2023-05-10T12:26:45;17.50;99.90
20759;DHT22;10539;53.686;9.158;2023-05-10T12:29:20;17.60;99.90
20759;DHT22;10539;53.686;9.158;2023-05-10T12:31:53;17.70;99.90
20759;DHT22;10539;53.686;9.158;2023-05-10T12:36:54;17.70;99.90
20759;DHT22;10539;53.686;9.158;2023-05-10T12:39:20;17.80;99.90
20759;DHT22;10539;53.686;9.158;2023-05-10T12:41:46;17.80;99.90
20759;DHT22;10539;53.686;9.158;2023-05-10T12:44:12;17.90;99.90
20759;DHT22;10539;53.686;9.158;2023-05-10T12:46:38;17.90;99.90
20759;DHT22;10539;53.686;9.158;2023-05-10T12:49:03;17.90;99.90
20759;DHT22;10539;53.686;9.158;2023-05-10T12:51:29;17.90;99.90
20759;DHT22;10539;53.686;9.158;2023-05-10T12:53:56;17.90;99.90
20759;DHT22;10539;53.686;9.158;2023-05-10T12:56:22;17.80;99.90
20759;DHT22;10539;53.686;9.158;2023-05-10T12:58:47;17.80;99.90
20759;DHT22;10539;53.686;9.158;2023-05-10T13:01:14;17.70;99.90
20759;DHT22;10539;53.686;9.158;2023-05-10T13:03:40;17.60;99.90
20759;DHT22;10539;53.686;9.158;2023-05-10T13:06:06;17.60;99.90
20759;DHT22;10539;53.686;9.158;2023-05-10T13:08:32;17.70;99.90
20759;DHT22;10539;53.686;9.158;2023-05-10T13:11:02;17.80;99.90
20759;DHT22;10539;53.686;9.158;2023-05-10T13:13:28;17.90;99.90
20759;DHT22;10539;53.686;9.158;2023-05-10T13:15:54;17.90;99.90
20759;DHT22;10539;53.686;9.158;2023-05-10T13:18:20;17.80;99.90
20759;DHT22;10539;53.686;9.158;2023-05-10T13:20:46;17.80;99.90
20759;DHT22;10539;53.686;9.158;2023-05-10T13:23:11;17.80;99.90
20759;DHT22;10539;53.686;9.158;2023-05-10T13:25:37;17.70;99.90
20759;DHT22;10539;53.686;9.158;2023-05-10T13:28:03;17.60;99.90
20759;DHT22;10539;53.686;9.158;2023-05-10T13:30:29;17.50;99.90
20759;DHT22;10539;53.686;9.158;2023-05-10T13:32:55;17.50;99.90
20759;DHT22;10539;53.686;9.158;2023-05-10T13:35:20;17.50;99.90
20759;DHT22;10539;53.686;9.158;2023-05-10T13:37:46;17.50;99.90
20759;DHT22;10539;53.686;9.158;2023-05-10T13:40:12;17.50;99.90
20759;DHT22;10539;53.686;9.158;2023-05-10T13:42:38;17.50;99.90
20759;DHT22;10539;53.686;9.158;2023-05-10T13:45:05;17.50;99.90
20759;DHT22;10539;53.686;9.158;2023-05-10T13:47:31;17.50;99.90
20759;DHT22;10539;53.686;9.158;2023-05-10T13:49:57;17.40;99.90
20759;DHT22;10539;53.686;9.158;2023-05-10T13:52:23;17.40;99.90
20759;DHT22;10539;53.686;9.158;2023-05-10T13:54:49;17.40;99.90
20759;DHT22;10539;53.686;9.158;2023-05-10T13:57:18;17.50;99.90
20759;DHT22;10539;53.686;9.158;2023-05-10T13:59:43;17.50;99.90
20759;DHT22;10539;53.686;9.158;2023-05-10T14:02:09;17.60;99.90
20759;DHT22;10539;53.686;9.158;2023-05-10T14:04:37;17.70;99.90
20759;DHT22;10539;53.686;9.158;2023-05-10T14:07:03;17.80;99.90
20759;DHT22;10539;53.686;9.158;2023-05-10T14:09:30;17.90;99.90
20759;DHT22;10539;53.686;9.158;2023-05-10T14:11:56;18.00;99.90
20759;DHT22;10539;53.686;9.158;2023-05-10T14:14:21;18.00;99.90
20759;DHT22;10539;53.686;9.158;2023-05-10T14:16:47;18.00;99.90
20759;DHT22;10539;53.686;9.158;2023-05-10T14:19:13;17.90;99.90
20759;DHT22;10539;53.686;9.158;2023-05-10T14:21:39;17.80;99.90
20759;DHT22;10539;53.686;9.158;2023-05-10T14:24:05;17.60;99.90
20759;DHT22;10539;53.686;9.158;2023-05-10T14:26:32;17.40;99.90
20759;DHT22;10539;53.686;9.158;2023-05-10T14:28:59;17.30;99.90
20759;DHT22;10539;53.686;9.158;2023-05-10T14:31:25;17.30;99.90
20759;DHT22;10539;53.686;9.158;2023-05-10T14:33:52;17.30;99.90
20759;DHT22;10539;53.686;9.158;2023-05-10T14:36:17;17.40;99.90
20759;DHT22;10539;53.686;9.158;2023-05-10T14:38:43;17.60;99.90
20759;DHT22;10539;53.686;9.158;2023-05-10T14:41:09;17.70;99.90
20759;DHT22;10539;53.686;9.158;2023-05-10T14:43:39;17.90;99.90
20759;DHT22;10539;53.686;9.158;2023-05-10T14:46:05;18.00;99.90
20759;DHT22;10539;53.686;9.158;2023-05-10T14:48:30;18.20;99.90
20759;DHT22;10539;53.686;9.158;2023-05-10T14:50:56;18.30;99.90
20759;DHT22;10539;53.686;9.158;2023-05-10T14:53:22;18.40;99.90
20759;DHT22;10539;53.686;9.158;2023-05-10T14:55:48;18.40;99.90
20759;DHT22;10539;53.686;9.158;2023-05-10T14:58:14;18.40;99.90
20759;DHT22;10539;53.686;9.158;2023-05-10T15:00:40;18.40;99.90
20759;DHT22;10539;53.686;9.158;2023-05-10T15:03:06;18.50;99.90
20759;DHT22;10539;53.686;9.158;2023-05-10T15:05:32;18.40;99.90
20759;DHT22;10539;53.686;9.158;2023-05-10T15:07:58;18.30;99.90
20759;DHT22;10539;53.686;9.158;2023-05-10T15:10:23;18.20;99.90
20759;DHT22;10539;53.686;9.158;2023-05-10T15:12:50;18.10;99.90
20759;DHT22;10539;53.686;9.158;2023-05-10T15:15:15;17.90;99.90
20759;DHT22;10539;53.686;9.158;2023-05-10T15:17:41;17.80;99.90
20759;DHT22;10539;53.686;9.158;2023-05-10T15:20:09;17.60;99.90
20759;DHT22;10539;53.686;9.158;2023-05-10T15:22:35;17.50;99.90
20759;DHT22;10539;53.686;9.158;2023-05-10T15:25:00;17.30;99.90
20759;DHT22;10539;53.686;9.158;2023-05-10T15:27:27;17.20;99.90
20759;DHT22;10539;53.686;9.158;2023-05-10T15:29:53;17.00;99.90
20759;DHT22;10539;53.686;9.158;2023-05-10T15:32:19;16.80;99.90
20759;DHT22;10539;53.686;9.158;2023-05-10T15:34:45;16.60;99.90
20759;DHT22;10539;53.686;9.158;2023-05-10T15:37:10;16.40;99.90
20759;DHT22;10539;53.686;9.158;2023-05-10T15:39:36;16.30;99.90
20759;DHT22;10539;53.686;9.158;2023-05-10T15:42:02;16.10;99.90
20759;DHT22;10539;53.686;9.158;2023-05-10T15:44:29;16.10;99.90
20759;DHT22;10539;53.686;9.158;2023-05-10T15:46:55;16.00;99.90
20759;DHT22;10539;53.686;9.158;2023-05-10T15:49:21;16.10;99.90
20759;DHT22;10539;53.686;9.158;2023-05-10T15:51:47;16.10;99.90
20759;DHT22;10539;53.686;9.158;2023-05-10T15:54:12;16.10;99.90